Time;durP1;ratioP1;P1;durP2;ratioP2;P2;SDS_P1;SDS_P2;PMS_P1;PMS_P2;Temp;Humidity;BMP_temperature;BMP_pressure;BME280_temperature;BME280_humidity;BME280_pressure;Samples;Min_cycle;Max_cycle;Signal;HPM_P1;HPM_P2
2022/09/28 00:00:06;;;;;;;2.88;1.92;;;11.30;81.40;;;;;;5070537;28;20483;-77
2022/09/28 00:02:34;;;;;;;3.65;2.22;;;11.30;81.50;;;;;;5071171;28;20043;-77
2022/09/28 00:05:01;;;;;;;5.53;2.42;;;11.20;81.40;;;;;;5052270;28;20021;-77
2022/09/28 00:07:27;;;;;;;3.38;1.95;;;11.20;81.50;;;;;;5071286;28;20028;-77
2022/09/28 00:09:53;;;;;;;4.97;2.40;;;11.20;81.60;;;;;;5052787;28;20086;-77
2022/09/28 00:12:20;;;;;;;3.53;2.38;;;11.10;81.50;;;;;;5051938;28;20554;-78
2022/09/28 00:14:46;;;;;;;2.13;1.92;;;11.20;81.70;;;;;;5054002;28;20048;-77
2022/09/28 00:17:11;;;;;;;3.63;2.70;;;11.10;81.60;;;;;;5028399;28;20029;-77
2022/09/28 00:19:39;;;;;;;4.78;2.55;;;11.10;81.60;;;;;;5063407;28;20520;-77
2022/09/28 00:22:05;;;;;;;3.03;2.70;;;11.10;81.60;;;;;;5051839;28;20051;-77
2022/09/28 00:24:31;;;;;;;2.42;1.98;;;11.10;81.70;;;;;;5070639;28;20036;-71
2022/09/28 00:27:00;;;;;;;3.28;2.53;;;11.00;81.70;;;;;;5068935;28;20040;-77
2022/09/28 00:29:34;;;;;;;1.90;1.70;;;11.00;81.80;;;;;;5053734;28;20364;-77
2022/09/28 00:32:05;;;;;;;2.72;1.83;;;11.10;81.80;;;;;;5068288;28;20021;-77
2022/09/28 00:34:36;;;;;;;18.60;2.40;;;11.10;81.70;;;;;;5071382;28;20400;-77
2022/09/28 00:37:03;;;;;;;3.83;2.33;;;11.10;81.80;;;;;;5052109;28;20373;-77
2022/09/28 00:39:33;;;;;;;2.45;2.13;;;11.00;81.60;;;;;;5059882;28;20032;-77
2022/09/28 00:41:58;;;;;;;4.95;2.65;;;11.00;81.70;;;;;;5069969;28;20032;-71
2022/09/28 00:44:24;;;;;;;3.55;2.38;;;10.90;81.80;;;;;;5070416;28;20036;-76
2022/09/28 00:47:00;;;;;;;1.83;1.50;;;10.80;81.90;;;;;;5052362;28;20032;-76
2022/09/28 00:49:34;;;;;;;2.03;1.70;;;10.80;82.10;;;;;;5070628;28;20087;-78
2022/09/28 00:52:01;;;;;;;2.78;2.05;;;10.80;82.10;;;;;;5064304;28;20031;-76
2022/09/28 00:54:27;;;;;;;3.47;2.08;;;10.80;82.10;;;;;;5070432;28;20025;-76
2022/09/28 00:56:53;;;;;;;2.28;1.90;;;10.80;82.00;;;;;;5070178;28;20043;-77
2022/09/28 00:59:19;;;;;;;3.25;2.17;;;10.90;81.90;;;;;;5052356;28;20045;-77
2022/09/28 01:01:44;;;;;;;2.40;2.10;;;10.90;81.90;;;;;;5032200;28;20477;-77
2022/09/28 01:04:10;;;;;;;2.97;2.25;;;10.90;82.30;;;;;;5066367;28;20040;-77
2022/09/28 01:06:37;;;;;;;2.30;1.80;;;10.90;81.70;;;;;;5052137;28;20036;-76
2022/09/28 01:09:09;;;;;;;1.67;1.55;;;10.90;81.50;;;;;;5050836;28;20365;-76
2022/09/28 01:11:37;;;;;;;3.00;2.10;;;10.90;81.40;;;;;;5064885;28;20017;-77
2022/09/28 01:14:07;;;;;;;4.13;2.03;;;10.90;81.40;;;;;;5060253;28;20025;-77
2022/09/28 01:16:54;;;;;;;5.70;2.55;;;10.90;81.40;;;;;;5069631;28;20027;-76
2022/09/28 01:19:57;;;;;;;2.97;1.75;;;10.80;81.40;;;;;;5059397;28;20035;-71
2022/09/28 01:22:47;;;;;;;2.40;2.15;;;10.80;81.30;;;;;;5069002;28;20027;-71
2022/09/28 01:25:38;;;;;;;4.20;2.10;;;10.80;81.30;;;;;;5050786;28;20036;-71
2022/09/28 01:28:10;;;;;;;2.42;1.95;;;10.80;81.30;;;;;;5068687;28;20452;-71
2022/09/28 01:30:57;;;;;;;3.33;2.38;;;10.70;81.30;;;;;;5051940;28;20028;-71
2022/09/28 01:33:28;;;;;;;2.40;2.00;;;10.70;81.40;;;;;;5051279;28;20364;-72
2022/09/28 01:36:03;;;;;;;3.33;2.83;;;10.70;81.50;;;;;;5067786;28;20027;-72
2022/09/28 01:38:36;;;;;;;2.08;1.88;;;10.70;81.70;;;;;;5069736;28;20032;-78
2022/09/28 01:41:04;;;;;;;3.38;2.35;;;10.70;81.80;;;;;;5051881;28;20463;-76
2022/09/28 01:43:33;;;;;;;3.15;2.47;;;10.70;81.80;;;;;;5068055;28;20513;-76
2022/09/28 01:46:15;;;;;;;3.33;2.90;;;10.70;81.80;;;;;;5068447;28;20047;-76
2022/09/28 01:49:11;;;;;;;2.53;2.33;;;10.70;81.80;;;;;;5051450;28;20028;-76
2022/09/28 01:51:54;;;;;;;2.28;2.08;;;10.70;81.90;;;;;;5064319;28;20326;-75
2022/09/28 01:54:31;;;;;;;3.72;2.30;;;10.70;81.90;;;;;;5044429;28;20536;-71
2022/09/28 01:57:16;;;;;;;5.13;2.60;;;10.70;82.00;;;;;;5065545;28;20020;-71
2022/09/28 01:59:51;;;;;;;6.07;3.08;;;10.70;81.90;;;;;;5065419;28;20078;-71
2022/09/28 02:02:23;;;;;;;3.28;2.78;;;10.70;81.90;;;;;;5069005;28;20055;-71
2022/09/28 02:05:21;;;;;;;2.22;1.58;;;10.60;81.90;;;;;;5068218;28;20483;-71
2022/09/28 02:08:19;;;;;;;3.08;2.20;;;10.60;81.70;;;;;;5047946;28;20835;-75
2022/09/28 02:10:51;;;;;;;2.75;2.28;;;10.60;82.00;;;;;;5068036;28;20476;-75
2022/09/28 02:13:28;;;;;;;6.68;3.05;;;10.50;82.00;;;;;;5068243;28;20016;-71
2022/09/28 02:16:17;;;;;;;5.43;2.92;;;10.50;82.00;;;;;;5064788;28;20123;-71
2022/09/28 02:18:44;;;;;;;3.40;2.42;;;10.50;82.20;;;;;;5066311;28;20051;-75
2022/09/28 02:21:15;;;;;;;4.55;3.03;;;10.40;82.40;;;;;;5034192;28;20865;-71
2022/09/28 02:23:50;;;;;;;5.35;2.70;;;10.40;82.40;;;;;;5068528;28;20024;-71
2022/09/28 02:26:18;;;;;;;2.47;2.17;;;10.40;82.30;;;;;;5069425;28;20021;-72
2022/09/28 02:28:44;;;;;;;2.67;2.25;;;10.40;82.20;;;;;;5050156;28;20107;-76
2022/09/28 02:31:10;;;;;;;2.65;1.85;;;10.40;82.10;;;;;;5034453;28;20496;-71
2022/09/28 02:33:39;;;;;;;2.22;1.95;;;10.50;82.00;;;;;;5064418;28;20437;-71
2022/09/28 02:36:05;;;;;;;2.40;2.13;;;10.50;82.00;;;;;;5058628;28;20443;-71
2022/09/28 02:38:32;;;;;;;3.10;2.45;;;10.50;82.00;;;;;;5066960;28;20435;-71
2022/09/28 02:41:04;;;;;;;4.40;3.55;;;10.50;82.00;;;;;;5050806;28;20071;-76
2022/09/28 02:43:38;;;;;;;3.42;3.10;;;10.50;82.30;;;;;;5068422;28;20036;-76
2022/09/28 02:46:04;;;;;;;3.58;2.95;;;10.50;82.50;;;;;;5049002;28;20063;-76
2022/09/28 02:48:47;;;;;;;3.03;2.38;;;10.50;82.60;;;;;;5064285;28;20028;-76
2022/09/28 02:51:31;;;;;;;3.42;2.95;;;10.50;82.60;;;;;;5056681;28;20024;-76
2022/09/28 02:53:59;;;;;;;3.13;2.72;;;10.50;82.70;;;;;;5049272;28;20286;-76
2022/09/28 02:56:34;;;;;;;4.05;2.72;;;10.60;82.90;;;;;;5057122;28;20024;-76
2022/09/28 02:59:12;;;;;;;3.55;2.78;;;10.60;82.80;;;;;;5068752;28;20033;-76
2022/09/28 03:02:10;;;;;;;4.47;3.05;;;10.60;82.70;;;;;;5067411;28;20586;-76
2022/09/28 03:04:51;;;;;;;3.30;2.85;;;10.60;82.70;;;;;;5064802;28;20046;-71
2022/09/28 03:07:40;;;;;;;6.45;3.78;;;10.60;82.90;;;;;;5061198;28;20024;-71
2022/09/28 03:10:30;;;;;;;5.63;3.15;;;10.60;82.90;;;;;;5067866;28;20040;-76
2022/09/28 03:12:57;;;;;;;4.35;3.83;;;10.70;83.00;;;;;;5065691;28;20035;-76
2022/09/28 03:15:29;;;;;;;3.88;3.10;;;10.60;83.20;;;;;;5049333;28;20032;-76
2022/09/28 03:17:56;;;;;;;2.60;2.35;;;10.60;83.30;;;;;;5068157;28;20070;-76
2022/09/28 03:20:22;;;;;;;5.82;1.50;;;10.60;83.30;;;;;;5033218;28;20032;-76
2022/09/28 03:22:47;;;;;;;3.50;2.55;;;10.70;83.20;;;;;;5069185;28;20031;-76
2022/09/28 03:25:14;;;;;;;4.38;2.70;;;10.70;83.00;;;;;;5071330;28;20029;-76
2022/09/28 03:27:40;;;;;;;4.00;2.65;;;10.70;83.00;;;;;;5054469;28;20039;-76
2022/09/28 03:30:07;;;;;;;4.45;2.53;;;10.70;83.00;;;;;;5072280;28;20056;-71
2022/09/28 03:32:33;;;;;;;2.75;2.55;;;10.70;83.00;;;;;;5071569;28;20032;-71
2022/09/28 03:34:58;;;;;;;3.65;2.63;;;10.70;83.10;;;;;;5053325;28;20421;-77
2022/09/28 03:37:26;;;;;;;2.53;1.90;;;10.70;83.00;;;;;;5036084;28;20064;-76
2022/09/28 03:39:52;;;;;;;3.67;2.17;;;10.70;83.10;;;;;;5071953;28;20376;-72
2022/09/28 03:42:17;;;;;;;3.55;2.63;;;10.80;83.10;;;;;;5054504;28;20037;-76
2022/09/28 03:44:43;;;;;;;3.33;2.33;;;10.70;83.00;;;;;;5050175;28;20041;-72
2022/09/28 03:47:09;;;;;;;2.78;2.00;;;10.80;83.10;;;;;;5048917;28;20033;-76
2022/09/28 03:49:34;;;;;;;3.85;2.13;;;10.80;83.00;;;;;;5047998;28;20024;-78
2022/09/28 03:52:01;;;;;;;5.70;2.25;;;10.90;83.00;;;;;;5051183;28;20017;-77
2022/09/28 03:54:26;;;;;;;2.28;1.65;;;10.90;82.80;;;;;;5050833;28;20025;-73
2022/09/28 03:56:52;;;;;;;2.47;1.83;;;10.90;82.70;;;;;;5049451;28;20032;-78
2022/09/28 03:59:18;;;;;;;2.63;2.28;;;10.90;82.70;;;;;;5052434;28;20021;-77
2022/09/28 04:01:44;;;;;;;2.13;1.98;;;10.90;82.70;;;;;;5049491;28;20099;-72
2022/09/28 04:04:12;;;;;;;2.50;2.05;;;10.90;82.60;;;;;;5051227;28;20025;-78
2022/09/28 04:06:38;;;;;;;3.10;1.60;;;10.90;82.60;;;;;;5050736;28;20495;-78
2022/09/28 04:09:04;;;;;;;2.80;2.30;;;10.90;82.60;;;;;;5044121;28;20071;-77
2022/09/28 04:11:30;;;;;;;1.85;1.52;;;10.90;82.60;;;;;;5051677;28;20438;-77
2022/09/28 04:13:55;;;;;;;1.98;1.77;;;10.90;82.50;;;;;;5050370;28;20013;-77
2022/09/28 04:16:21;;;;;;;2.25;1.65;;;10.90;82.50;;;;;;5051622;28;20104;-77
2022/09/28 04:18:47;;;;;;;3.35;1.98;;;10.90;82.50;;;;;;5050084;28;20032;-77
2022/09/28 04:21:15;;;;;;;1.33;1.23;;;10.90;82.50;;;;;;5037096;28;20534;-78
2022/09/28 04:23:53;;;;;;;1.55;1.20;;;11.00;82.50;;;;;;5046937;28;20179;-77
2022/09/28 04:26:24;;;;;;;1.63;1.17;;;11.00;82.50;;;;;;5048505;28;20037;-77
2022/09/28 04:31:47;;;;;;;1.85;1.38;;;10.90;82.40;;;;;;5050914;28;20035;-72
2022/09/28 04:34:16;;;;;;;4.20;1.55;;;11.00;82.50;;;;;;5046647;28;20075;-72
2022/09/28 04:36:45;;;;;;;1.90;1.65;;;10.90;82.50;;;;;;5050583;28;20043;-73
2022/09/28 04:39:12;;;;;;;2.28;1.58;;;10.90;82.40;;;;;;5046730;28;20048;-72
2022/09/28 04:41:39;;;;;;;1.38;1.27;;;10.90;82.40;;;;;;5049887;28;20413;-72
2022/09/28 04:44:05;;;;;;;4.97;1.80;;;10.80;82.30;;;;;;5049185;28;20025;-72
2022/09/28 04:46:31;;;;;;;1.98;1.50;;;10.80;82.40;;;;;;5037968;28;20059;-72
2022/09/28 04:48:56;;;;;;;2.25;1.83;;;10.80;82.40;;;;;;5042359;28;20040;-76
2022/09/28 04:51:22;;;;;;;2.20;1.35;;;10.80;82.40;;;;;;5029364;28;20037;-77
2022/09/28 04:53:48;;;;;;;3.20;1.65;;;10.70;82.40;;;;;;5027216;28;20034;-77
2022/09/28 04:56:16;;;;;;;3.10;2.08;;;10.70;82.40;;;;;;5046496;28;20053;-77
2022/09/28 04:58:42;;;;;;;1.65;1.50;;;10.70;82.40;;;;;;5045732;28;20056;-77
2022/09/28 05:01:12;;;;;;;3.40;1.58;;;10.60;82.40;;;;;;5047371;28;20036;-77
2022/09/28 05:03:37;;;;;;;2.00;1.60;;;10.60;82.40;;;;;;5044861;28;20071;-80
2022/09/28 05:06:05;;;;;;;2.53;1.63;;;10.50;82.40;;;;;;5046965;28;20025;-77
2022/09/28 05:08:31;;;;;;;2.38;1.27;;;10.50;82.40;;;;;;5048139;28;20382;-77
2022/09/28 05:10:59;;;;;;;2.00;1.48;;;10.40;82.40;;;;;;5046343;28;20100;-78
2022/09/28 05:13:25;;;;;;;2.72;1.67;;;10.40;82.50;;;;;;5028941;28;20468;-77
2022/09/28 05:15:56;;;;;;;3.25;1.88;;;10.40;82.40;;;;;;5050523;28;20104;-73
2022/09/28 05:18:22;;;;;;;5.53;1.67;;;10.40;82.30;;;;;;5036616;28;20051;-74
2022/09/28 05:20:48;;;;;;;3.33;1.63;;;10.30;82.10;;;;;;5033685;28;20152;-74
2022/09/28 05:23:14;;;;;;;1.58;1.27;;;10.30;81.90;;;;;;5041166;28;20025;-78
2022/09/28 05:25:41;;;;;;;1.92;1.73;;;10.30;81.90;;;;;;5027138;28;20043;-71
2022/09/28 05:28:07;;;;;;;1.77;1.67;;;10.20;81.80;;;;;;5043369;28;20021;-71
2022/09/28 05:30:34;;;;;;;1.30;1.20;;;10.10;81.70;;;;;;5048011;28;20032;-71
2022/09/28 05:33:00;;;;;;;1.65;1.40;;;10.10;81.80;;;;;;5047840;28;20488;-71
2022/09/28 05:35:26;;;;;;;2.22;1.70;;;10.10;81.90;;;;;;5050077;28;20088;-72
2022/09/28 05:37:53;;;;;;;1.58;1.17;;;10.10;81.90;;;;;;5050002;28;20464;-72
2022/09/28 05:40:19;;;;;;;4.13;1.60;;;10.00;82.00;;;;;;5050040;28;20036;-71
2022/09/28 05:42:45;;;;;;;2.88;1.92;;;10.00;82.10;;;;;;5046764;28;20032;-75
2022/09/28 05:45:11;;;;;;;10.38;2.92;;;10.00;82.10;;;;;;5048494;28;20057;-74
2022/09/28 05:47:41;;;;;;;4.80;2.03;;;10.00;82.20;;;;;;5047700;28;20396;-72
2022/09/28 05:50:10;;;;;;;1.95;1.63;;;10.00;82.20;;;;;;5048325;28;20478;-76
2022/09/28 05:52:38;;;;;;;5.53;2.28;;;10.00;82.20;;;;;;5047370;28;20876;-76
2022/09/28 05:55:05;;;;;;;2.95;1.98;;;10.00;82.10;;;;;;5049651;28;20464;-77
2022/09/28 05:57:31;;;;;;;3.40;1.77;;;10.00;81.90;;;;;;5048113;28;20025;-75
2022/09/28 05:59:57;;;;;;;8.52;2.60;;;10.00;82.00;;;;;;5047058;28;20087;-75
2022/09/28 06:02:23;;;;;;;1.67;1.40;;;10.00;82.00;;;;;;5046315;28;20627;-81
2022/09/28 06:04:50;;;;;;;1.75;1.60;;;10.00;82.00;;;;;;5047201;28;20048;-72
2022/09/28 06:07:16;;;;;;;2.47;1.17;;;10.00;82.00;;;;;;5047796;28;20379;-73
2022/09/28 06:09:42;;;;;;;1.88;1.35;;;10.00;81.90;;;;;;5031372;28;20472;-72
2022/09/28 06:12:08;;;;;;;1.95;1.70;;;10.00;81.80;;;;;;5044880;28;20021;-72
2022/09/28 06:14:34;;;;;;;2.08;1.33;;;10.00;81.70;;;;;;5046907;28;20037;-73
2022/09/28 06:16:59;;;;;;;1.67;1.38;;;10.00;81.70;;;;;;5047416;28;20113;-73
2022/09/28 06:19:25;;;;;;;1.70;1.38;;;10.00;81.70;;;;;;5047444;28;20040;-73
2022/09/28 06:21:51;;;;;;;1.42;1.10;;;10.00;81.70;;;;;;5046274;28;20450;-73
2022/09/28 06:24:16;;;;;;;2.05;1.42;;;10.00;81.70;;;;;;5048130;28;20098;-73
2022/09/28 06:26:42;;;;;;;2.00;1.38;;;9.90;81.70;;;;;;5047014;28;20411;-77
2022/09/28 06:29:08;;;;;;;1.95;1.45;;;10.00;82.60;;;;;;5048109;28;20033;-77
2022/09/28 06:31:33;;;;;;;1.42;1.27;;;10.00;82.10;;;;;;5048212;28;20261;-77
2022/09/28 06:34:00;;;;;;;2.35;1.50;;;10.00;82.20;;;;;;5048589;28;20025;-74
2022/09/28 06:36:30;;;;;;;1.38;1.27;;;10.00;82.40;;;;;;5045507;28;20426;-73
2022/09/28 06:38:55;;;;;;;3.65;1.83;;;10.10;82.50;;;;;;5046652;28;20365;-77
2022/09/28 06:41:21;;;;;;;1.88;1.58;;;10.10;82.40;;;;;;5041483;28;20063;-77
2022/09/28 06:43:48;;;;;;;1.40;1.30;;;10.20;82.30;;;;;;5039661;28;20025;-77
2022/09/28 06:46:14;;;;;;;1.77;1.55;;;10.20;82.30;;;;;;5043227;28;20060;-73
2022/09/28 06:48:40;;;;;;;1.63;1.48;;;10.30;82.30;;;;;;5043874;28;20029;-73
2022/09/28 06:51:06;;;;;;;1.88;1.58;;;10.30;82.30;;;;;;5047068;28;20500;-77
2022/09/28 06:53:31;;;;;;;1.40;1.30;;;10.40;82.40;;;;;;5026002;28;20116;-77
2022/09/28 06:55:57;;;;;;;1.92;1.60;;;10.40;82.40;;;;;;5042376;28;20365;-77
2022/09/28 06:58:23;;;;;;;1.60;1.50;;;10.50;82.40;;;;;;5047914;28;20029;-77
2022/09/28 07:00:50;;;;;;;1.60;1.50;;;10.60;82.30;;;;;;5047861;28;20078;-77
2022/09/28 07:03:20;;;;;;;1.75;1.55;;;10.60;82.30;;;;;;5043594;28;20530;-77
2022/09/28 07:05:48;;;;;;;3.58;1.40;;;10.60;82.30;;;;;;5043304;28;20035;-76
2022/09/28 07:08:15;;;;;;;2.15;1.35;;;10.60;82.20;;;;;;5044791;28;20105;-77
2022/09/28 07:10:42;;;;;;;1.35;1.10;;;10.70;82.30;;;;;;5048288;28;20136;-80
2022/09/28 07:13:09;;;;;;;0.77;0.70;;;10.80;82.20;;;;;;5045402;28;20040;-79
2022/09/28 07:15:35;;;;;;;2.00;1.08;;;10.90;82.10;;;;;;5030794;28;20029;-73
2022/09/28 07:18:04;;;;;;;0.88;0.85;;;10.90;82.00;;;;;;5027200;28;20301;-74
2022/09/28 07:20:32;;;;;;;4.65;1.20;;;11.00;82.00;;;;;;5045480;28;20041;-80
2022/09/28 07:23:00;;;;;;;1.00;0.88;;;11.00;81.90;;;;;;5044496;28;20131;-73
2022/09/28 07:25:31;;;;;;;0.80;0.68;;;11.10;81.90;;;;;;5044297;28;20086;-72
2022/09/28 07:27:58;;;;;;;0.75;0.60;;;11.10;81.90;;;;;;5046477;28;20021;-76
2022/09/28 07:30:26;;;;;;;0.93;0.93;;;11.20;81.90;;;;;;5048076;28;20523;-76
2022/09/28 07:32:55;;;;;;;0.40;0.40;;;11.30;81.90;;;;;;5047319;28;20446;-77
2022/09/28 07:35:21;;;;;;;1.33;0.80;;;11.30;81.80;;;;;;5045704;28;20024;-72
2022/09/28 07:37:47;;;;;;;0.40;0.40;;;11.40;81.70;;;;;;5042754;28;20030;-75
2022/09/28 07:43:04;;;;;;;0.95;0.40;;;11.60;81.60;;;;;;5040097;28;20087;-76
2022/09/28 07:45:35;;;;;;;0.60;0.60;;;11.70;81.50;;;;;;5053828;28;20060;-72
2022/09/28 07:48:01;;;;;;;0.80;0.55;;;11.70;81.50;;;;;;5050287;28;20519;-77
2022/09/28 07:50:27;;;;;;;0.90;0.77;;;11.80;81.40;;;;;;5047816;28;20032;-72
2022/09/28 07:52:55;;;;;;;0.63;0.55;;;11.80;81.20;;;;;;5065600;28;20033;-72
2022/09/28 07:55:20;;;;;;;0.50;0.50;;;11.90;81.10;;;;;;5068092;28;20039;-71
2022/09/28 07:57:47;;;;;;;0.50;0.50;;;12.00;80.90;;;;;;5046869;28;20032;-71
2022/09/28 08:00:13;;;;;;;0.35;0.35;;;12.10;80.90;;;;;;5041018;28;20029;-71
2022/09/28 08:02:39;;;;;;;1.35;0.50;;;12.10;80.70;;;;;;5052531;28;20055;-71
2022/09/28 08:05:05;;;;;;;0.40;0.30;;;12.10;80.50;;;;;;5059835;28;20245;-73
2022/09/28 08:07:31;;;;;;;0.70;0.70;;;12.20;80.50;;;;;;5060850;28;20090;-72
2022/09/28 08:09:57;;;;;;;0.40;0.40;;;12.20;80.50;;;;;;5066787;28;20120;-72
2022/09/28 08:12:22;;;;;;;0.40;0.40;;;12.30;80.30;;;;;;5026631;28;20111;-77
2022/09/28 08:14:49;;;;;;;0.57;0.40;;;12.30;80.10;;;;;;5070088;28;20009;-77
2022/09/28 08:17:15;;;;;;;0.50;0.30;;;12.40;80.10;;;;;;5051141;28;20020;-77
2022/09/28 08:22:25;;;;;;;0.35;0.32;;;12.50;79.80;;;;;;5055663;28;20066;-72
2022/09/28 08:24:50;;;;;;;0.50;0.50;;;12.60;79.80;;;;;;5033454;28;20037;-72
2022/09/28 08:27:17;;;;;;;0.28;0.28;;;12.60;79.50;;;;;;5028423;28;20090;-72
2022/09/28 08:29:42;;;;;;;0.20;0.20;;;12.70;79.40;;;;;;5064592;28;20036;-72
2022/09/28 08:32:09;;;;;;;0.70;0.60;;;12.80;79.20;;;;;;5067833;28;20027;-72
2022/09/28 08:34:39;;;;;;;0.22;0.22;;;12.90;79.00;;;;;;5063948;28;20403;-73
2022/09/28 08:37:07;;;;;;;0.30;0.30;;;13.00;78.50;;;;;;5049945;28;20029;-72
2022/09/28 08:39:34;;;;;;;0.70;0.57;;;13.10;78.50;;;;;;5065947;28;20101;-72
2022/09/28 08:42:17;;;;;;;0.30;0.22;;;13.20;78.30;;;;;;5071427;28;20025;-72
2022/09/28 08:44:56;;;;;;;0.20;0.20;;;13.30;78.00;;;;;;5069899;28;20110;-72
2022/09/28 08:50:24;;;;;;;0.20;0.20;;;13.60;77.50;;;;;;5068309;28;20040;-72
2022/09/28 08:52:58;;;;;;;0.25;0.25;;;13.80;77.40;;;;;;5070511;28;20110;-72
2022/09/28 08:55:30;;;;;;;0.30;0.30;;;13.80;77.10;;;;;;5059899;28;20491;-73
2022/09/28 08:58:11;;;;;;;0.22;0.22;;;13.80;77.10;;;;;;5048324;28;20085;-78
2022/09/28 09:00:49;;;;;;;0.38;0.38;;;13.80;76.90;;;;;;5073152;28;20545;-78
2022/09/28 09:03:31;;;;;;;0.40;0.30;;;13.80;76.60;;;;;;5072775;28;20041;-78
2022/09/28 09:06:11;;;;;;;0.60;0.45;;;13.90;76.90;;;;;;5070446;28;20057;-73
2022/09/28 09:08:36;;;;;;;0.20;0.20;;;14.20;76.60;;;;;;5069196;28;20081;-73
2022/09/28 09:11:28;;;;;;;0.25;0.25;;;14.30;75.90;;;;;;5053167;28;20028;-73
2022/09/28 09:14:23;;;;;;;0.20;0.20;;;14.40;75.30;;;;;;5060821;28;20116;-79
2022/09/28 09:17:36;;;;;;;0.55;0.52;;;14.50;75.10;;;;;;5051407;28;20067;-80
2022/09/28 09:20:13;;;;;;;1.92;0.85;;;14.60;74.80;;;;;;4960814;28;20031;-78
2022/09/28 09:22:44;;;;;;;0.20;0.20;;;14.40;74.40;;;;;;4964971;28;20050;-72
2022/09/28 09:25:20;;;;;;;1.00;0.60;;;14.40;74.80;;;;;;5025575;28;20040;-78
2022/09/28 09:27:55;;;;;;;0.30;0.30;;;14.40;74.90;;;;;;5043198;28;20052;-79
2022/09/28 09:30:38;;;;;;;0.20;0.20;;;14.60;74.10;;;;;;5052813;28;20556;-79
2022/09/28 09:33:31;;;;;;;0.10;0.10;;;14.80;73.00;;;;;;5055298;28;20214;-78
2022/09/28 09:36:26;;;;;;;0.30;0.30;;;14.80;72.10;;;;;;5048438;28;20059;-72
2022/09/28 09:39:03;;;;;;;0.85;0.32;;;14.70;72.20;;;;;;5065268;28;20024;-78
2022/09/28 09:41:41;;;;;;;0.20;0.20;;;14.60;72.50;;;;;;5061379;28;20024;-78
2022/09/28 09:44:16;;;;;;;0.20;0.20;;;14.40;72.40;;;;;;5063784;28;20073;-79
2022/09/28 09:46:58;;;;;;;0.20;0.20;;;14.50;72.30;;;;;;5043685;28;20032;-79
2022/09/28 09:49:44;;;;;;;0.65;0.40;;;14.70;72.20;;;;;;5052085;28;20119;-78
2022/09/28 09:52:20;;;;;;;1.55;0.30;;;15.00;71.80;;;;;;5064404;28;20379;-79
2022/09/28 09:55:01;;;;;;;0.35;0.35;;;15.20;70.70;;;;;;5058364;28;20082;-78
2022/09/28 09:57:45;;;;;;;0.55;0.28;;;15.20;70.50;;;;;;5065573;28;20023;-79
2022/09/28 10:00:15;;;;;;;0.20;0.20;;;15.10;70.90;;;;;;5054642;28;20476;-78
2022/09/28 10:02:43;;;;;;;1.75;0.75;;;15.20;70.20;;;;;;5059029;28;20025;-78
2022/09/28 10:05:12;;;;;;;0.75;0.30;;;15.30;70.10;;;;;;5056336;28;20025;-79
2022/09/28 10:07:58;;;;;;;0.47;0.20;;;15.50;69.60;;;;;;5046298;28;20037;-72
2022/09/28 10:10:28;;;;;;;0.10;0.10;;;15.80;69.70;;;;;;5068660;28;20085;-78
2022/09/28 10:12:54;;;;;;;1.10;0.30;;;15.90;69.30;;;;;;5067459;28;20028;-78
2022/09/28 10:15:26;;;;;;;0.40;0.40;;;15.90;69.20;;;;;;5009279;28;20370;-78
2022/09/28 10:17:53;;;;;;;3.33;0.20;;;15.70;69.10;;;;;;5044303;28;20028;-78
2022/09/28 10:20:20;;;;;;;0.10;0.10;;;15.50;69.40;;;;;;5061337;28;20055;-77
2022/09/28 10:22:46;;;;;;;0.30;0.30;;;15.40;70.00;;;;;;5072142;28;20028;-77
2022/09/28 10:25:12;;;;;;;0.20;0.20;;;15.30;69.80;;;;;;5052034;28;20039;-77
2022/09/28 10:27:44;;;;;;;0.30;0.20;;;15.30;70.30;;;;;;5045354;28;20032;-78
2022/09/28 10:30:22;;;;;;;0.70;0.43;;;15.60;70.40;;;;;;5066297;28;20538;-72
2022/09/28 10:32:49;;;;;;;0.30;0.30;;;15.90;69.40;;;;;;5050339;28;20162;-72
2022/09/28 10:35:18;;;;;;;0.10;0.10;;;16.00;68.40;;;;;;5051387;28;20040;-72
2022/09/28 10:37:58;;;;;;;1.55;0.20;;;16.00;66.90;;;;;;5040264;28;20484;-72
2022/09/28 10:40:49;;;;;;;0.30;0.30;;;15.90;67.40;;;;;;5068584;28;20467;-72
2022/09/28 10:43:25;;;;;;;0.38;0.38;;;15.70;67.30;;;;;;5048053;28;20531;-72
2022/09/28 10:46:02;;;;;;;0.20;0.20;;;15.50;66.90;;;;;;5049737;28;20554;-72
2022/09/28 10:48:44;;;;;;;0.10;0.10;;;15.40;67.40;;;;;;5047616;28;20066;-72
2022/09/28 10:51:10;;;;;;;;;;;15.50;67.70;;;;;;5048586;28;20021;-72
2022/09/28 10:53:37;;;;;;;0.20;0.20;;;15.40;67.80;;;;;;5068757;28;19908;-72
2022/09/28 10:56:25;;;;;;;1.95;0.68;;;15.50;68.00;;;;;;5068907;28;20121;-72
2022/09/28 10:58:51;;;;;;;0.20;0.20;;;15.60;67.40;;;;;;5068716;28;20498;-73
2022/09/28 11:01:25;;;;;;;0.30;0.30;;;15.60;67.50;;;;;;5064793;28;20036;-72
2022/09/28 11:03:55;;;;;;;0.65;0.30;;;15.50;67.20;;;;;;5066261;28;20024;-72
2022/09/28 11:06:34;;;;;;;0.15;0.15;;;15.50;67.60;;;;;;5065692;28;20028;-73
2022/09/28 11:09:04;;;;;;;0.10;0.10;;;15.40;67.80;;;;;;5065484;28;20036;-72
2022/09/28 11:11:38;;;;;;;0.20;0.20;;;15.40;68.10;;;;;;5067340;28;20022;-73
2022/09/28 11:14:04;;;;;;;0.85;0.40;;;15.40;68.20;;;;;;5049372;28;20028;-72
2022/09/28 11:16:32;;;;;;;0.65;0.20;;;15.30;67.50;;;;;;5069564;28;20066;-78
2022/09/28 11:19:05;;;;;;;0.25;0.25;;;15.40;68.30;;;;;;5048139;28;20484;-78
2022/09/28 11:21:41;;;;;;;0.30;0.30;;;16.00;68.40;;;;;;5069670;28;20043;-72
2022/09/28 11:24:22;;;;;;;0.22;0.22;;;16.40;66.80;;;;;;5048167;28;20025;-72
2022/09/28 11:26:58;;;;;;;0.25;0.25;;;16.60;65.50;;;;;;5046459;28;20024;-72
2022/09/28 11:29:35;;;;;;;0.20;0.20;;;16.70;65.20;;;;;;5057892;28;20020;-72
2022/09/28 11:32:04;;;;;;;1.00;0.25;;;16.70;65.40;;;;;;5050512;28;20032;-72
2022/09/28 11:34:35;;;;;;;0.17;0.10;;;16.80;64.80;;;;;;5051596;28;20039;-72
2022/09/28 11:37:21;;;;;;;0.30;0.30;;;16.80;64.70;;;;;;5068809;28;20033;-71
2022/09/28 11:39:47;;;;;;;0.20;0.20;;;16.80;64.60;;;;;;5060672;28;20051;-71
2022/09/28 11:42:31;;;;;;;0.95;0.28;;;16.70;64.90;;;;;;5069083;28;20040;-71
2022/09/28 11:45:35;;;;;;;0.70;0.55;;;16.60;64.50;;;;;;5054336;28;20076;-71
2022/09/28 11:48:04;;;;;;;0.17;0.17;;;16.50;64.90;;;;;;5060271;28;20029;-77
2022/09/28 11:50:30;;;;;;;0.20;0.20;;;16.60;65.00;;;;;;5072985;28;20043;-71
2022/09/28 11:53:10;;;;;;;0.20;0.20;;;16.70;65.00;;;;;;5073107;28;20024;-77
2022/09/28 11:55:45;;;;;;;0.93;0.20;;;17.00;63.70;;;;;;5045684;28;20546;-76
2022/09/28 11:58:19;;;;;;;2.63;0.38;;;17.10;62.30;;;;;;5055557;28;20020;-71
2022/09/28 12:00:55;;;;;;;0.80;0.30;;;17.10;62.70;;;;;;5072608;28;20471;-71
2022/09/28 12:03:29;;;;;;;0.17;0.17;;;17.20;62.90;;;;;;5054451;28;20008;-72
2022/09/28 12:06:01;;;;;;;0.15;0.15;;;17.10;62.10;;;;;;5073178;28;20025;-77
2022/09/28 12:08:36;;;;;;;0.20;0.20;;;16.90;62.50;;;;;;5073855;28;20020;-77
2022/09/28 12:11:20;;;;;;;0.32;0.10;;;16.80;62.80;;;;;;5073937;28;20024;-77
2022/09/28 12:13:50;;;;;;;0.20;0.20;;;16.70;63.40;;;;;;5074317;28;20103;-77
2022/09/28 12:16:28;;;;;;;0.10;0.10;;;16.60;63.50;;;;;;5055289;28;20452;-71
2022/09/28 12:19:13;;;;;;;0.20;0.20;;;16.50;63.70;;;;;;5071924;28;20017;-71
2022/09/28 12:21:51;;;;;;;0.13;0.13;;;16.40;63.40;;;;;;5071426;28;20043;-71
2022/09/28 12:24:31;;;;;;;0.20;0.20;;;16.30;63.90;;;;;;5073035;28;20083;-72
2022/09/28 12:27:04;;;;;;;0.20;0.20;;;16.50;64.20;;;;;;5056549;28;20013;-72
2022/09/28 12:30:08;;;;;;;0.20;0.20;;;17.10;62.40;;;;;;5066942;28;20475;-72
2022/09/28 12:32:57;;;;;;;0.47;0.47;;;17.60;61.60;;;;;;5052971;28;20456;-72
2022/09/28 12:35:51;;;;;;;0.98;0.47;;;18.00;58.90;;;;;;5041421;28;20081;-72
2022/09/28 12:38:42;;;;;;;0.80;0.80;;;18.20;58.90;;;;;;5071980;28;20490;-72
2022/09/28 12:41:30;;;;;;;0.63;0.50;;;18.40;56.70;;;;;;5053016;28;20663;-72
2022/09/28 12:44:12;;;;;;;0.30;0.30;;;18.50;55.80;;;;;;5053164;28;20028;-72
2022/09/28 12:46:48;;;;;;;1.97;0.20;;;18.80;56.20;;;;;;5071175;28;20401;-72
2022/09/28 12:49:16;;;;;;;0.20;0.20;;;19.00;53.60;;;;;;5070975;28;20517;-72
2022/09/28 12:51:54;;;;;;;0.20;0.20;;;19.20;54.50;;;;;;5070128;28;20075;-72
2022/09/28 12:54:41;;;;;;;0.22;0.20;;;19.40;54.70;;;;;;5050960;28;20237;-72
2022/09/28 12:57:42;;;;;;;0.20;0.20;;;19.40;53.70;;;;;;5058312;28;20553;-72
2022/09/28 13:00:31;;;;;;;0.52;0.20;;;19.30;53.90;;;;;;5007247;28;20523;-73
2022/09/28 13:03:12;;;;;;;0.17;0.17;;;19.30;54.30;;;;;;5067845;28;20028;-75
2022/09/28 13:05:46;;;;;;;0.45;0.45;;;19.30;53.90;;;;;;5046894;28;20677;-72
2022/09/28 13:08:27;;;;;;;0.10;0.10;;;19.30;53.30;;;;;;5071302;28;20038;-72
2022/09/28 13:11:31;;;;;;;0.20;0.20;;;19.30;53.50;;;;;;5052267;28;20052;-72
2022/09/28 13:14:31;;;;;;;0.22;0.22;;;19.30;53.30;;;;;;5065792;28;20023;-72
2022/09/28 13:17:14;;;;;;;0.65;0.57;;;19.20;53.90;;;;;;5056888;28;20032;-71
2022/09/28 13:19:58;;;;;;;2.08;0.40;;;19.20;54.60;;;;;;5052399;28;20055;-72
2022/09/28 13:22:29;;;;;;;0.20;0.20;;;19.00;54.80;;;;;;5067725;28;20033;-72
2022/09/28 13:25:00;;;;;;;0.20;0.20;;;18.80;55.40;;;;;;5069570;28;20024;-72